Time;durP1;ratioP1;P1;durP2;ratioP2;P2;SDS_P1;SDS_P2;PMS_P1;PMS_P2;Temp;Humidity;BMP_temperature;BMP_pressure;BME280_temperature;BME280_humidity;BME280_pressure;Samples;Min_cycle;Max_cycle;Signal;HPM_P1;HPM_P2
2022/01/23 00:01:43;;;;;;;65.10;26.77;;;;;;;11.60;100.00;103405.25;5076973;28;20124;-56
2022/01/23 00:04:09;;;;;;;60.92;26.00;;;;;;;11.72;100.00;103410.47;5058630;28;20047;-54
2022/01/23 00:06:34;;;;;;;61.03;23.93;;;;;;;11.67;100.00;103410.06;5076146;28;20044;-55
2022/01/23 00:09:00;;;;;;;54.87;24.93;;;;;;;11.67;100.00;103404.69;5076441;28;20116;-55
2022/01/23 00:11:27;;;;;;;56.13;24.57;;;;;;;11.67;100.00;103404.69;5058651;28;20074;-54
2022/01/23 00:19:07;;;;;;;47.08;22.65;;;;;;;11.15;100.00;103403.03;5076160;28;20094;-53
2022/01/23 00:21:34;;;;;;;44.03;22.03;;;;;;;10.90;100.00;103399.84;5076201;28;20104;-53
2022/01/23 00:31:54;;;;;;;48.92;22.10;;;;;;;10.95;100.00;103396.75;5076210;28;20040;-53
2022/01/23 00:34:20;;;;;;;50.27;22.50;;;;;;;11.07;100.00;103394.81;5076213;28;20032;-56
2022/01/23 00:36:46;;;;;;;49.10;23.23;;;;;;;10.97;100.00;103392.13;5076486;28;20689;-52
2022/01/23 00:39:11;;;;;;;51.75;24.80;;;;;;;10.92;100.00;103397.03;5075920;28;20275;-54
2022/01/23 00:41:37;;;;;;;49.80;22.67;;;;;;;11.10;100.00;103391.91;5075885;28;20043;-52
2022/01/23 00:44:03;;;;;;;50.40;22.98;;;;;;;11.35;100.00;103392.38;5057868;28;20538;-55
2022/01/23 00:46:34;;;;;;;57.33;23.08;;;;;;;11.15;100.00;103397.69;5076230;28;20048;-52
2022/01/23 00:51:30;;;;;;;67.22;25.67;;;;;;;11.16;100.00;103383.31;5076116;28;20045;-56
2022/01/23 00:53:57;;;;;;;62.50;25.00;;;;;;;11.31;100.00;103389.97;5058002;28;20101;-55
2022/01/23 00:56:23;;;;;;;59.65;24.15;;;;;;;11.25;100.00;103398.53;5075185;28;20545;-56
2022/01/23 00:58:49;;;;;;;52.83;22.40;;;;;;;11.10;100.00;103394.56;5075605;28;20495;-54
2022/01/23 01:01:16;;;;;;;52.30;23.33;;;;;;;11.42;100.00;103388.16;5057577;28;20032;-54
2022/01/23 01:03:41;;;;;;;54.42;22.27;;;;;;;11.43;100.00;103392.53;5058119;28;20033;-55
2022/01/23 01:06:25;;;;;;;56.22;23.55;;;;;;;11.04;100.00;103396.78;5057834;28;20091;-53
2022/01/23 01:08:54;;;;;;;51.95;22.52;;;;;;;11.29;100.00;103391.94;5057322;28;20083;-56
2022/01/23 01:33:07;;;;;;;42.40;19.23;;;;;;;11.66;100.00;103379.75;5056966;28;20044;-54
2022/01/23 01:36:02;;;;;;;42.28;19.13;;;;;;;11.58;100.00;103384.94;5073083;28;20133;-52
2022/01/23 01:38:16;;;;;;;38.65;18.67;;;;;;;11.62;100.00;103399.75;5052687;28;20055;-52
2022/01/23 01:40:41;;;;;;;36.10;17.53;;;;;;;11.55;100.00;103396.78;5074747;28;20037;-50
2022/01/23 01:43:07;;;;;;;35.25;17.75;;;;;;;11.32;100.00;103394.34;5056037;28;20051;-54
2022/01/23 01:45:36;;;;;;;37.63;18.73;;;;;;;11.45;100.00;103398.59;5057423;28;20429;-55
2022/01/23 01:48:16;;;;;;;42.42;18.27;;;;;;;11.42;100.00;103398.88;5056919;28;20416;-53
2022/01/23 01:50:46;;;;;;;40.10;18.63;;;;;;;11.37;100.00;103404.63;5056775;28;20385;-53
2022/01/23 01:53:13;;;;;;;43.47;19.20;;;;;;;11.68;100.00;103398.34;5040601;28;20200;-54
2022/01/23 01:55:47;;;;;;;39.30;18.42;;;;;;;11.71;100.00;103403.41;5056766;28;20036;-53
2022/01/23 02:09:35;;;;;;;44.88;18.38;;;;;;;10.79;100.00;103362.47;5139700;27;20129;-55
2022/01/23 02:12:29;;;;;;;38.42;18.38;;;;;;;10.85;100.00;103360.09;5154588;27;20111;-56
2022/01/23 02:15:11;;;;;;;39.65;18.67;;;;;;;10.56;100.00;103357.28;5172704;27;20038;-53
2022/01/23 02:17:59;;;;;;;38.80;17.88;;;;;;;11.37;100.00;103363.63;5154085;27;20093;-55
2022/01/23 02:51:03;;;;;;;38.92;18.60;;;;;;;11.32;100.00;103362.22;5153477;27;20042;-54
2022/01/23 02:55:56;;;;;;;42.10;18.75;;;;;;;11.62;100.00;103362.22;5172011;27;20129;-56
2022/01/23 02:58:24;;;;;;;44.40;19.00;;;;;;;11.56;100.00;103374.38;5153079;27;20051;-55
2022/01/23 03:01:10;;;;;;;43.83;19.20;;;;;;;11.55;100.00;103363.78;5136487;27;20034;-53
2022/01/23 03:03:43;;;;;;;39.63;18.65;;;;;;;11.44;100.00;103364.75;5171700;27;20394;-53
2022/01/23 03:09:20;;;;;;;43.10;19.02;;;;;;;11.37;100.00;103363.63;5136441;27;20077;-55
2022/01/23 03:14:22;;;;;;;40.53;18.75;;;;;;;11.40;100.00;103363.34;5164813;27;20378;-55
2022/01/23 03:25:23;;;;;;;38.22;18.38;;;;;;;11.44;100.00;103357.56;5127901;27;20058;-49
2022/01/23 03:30:39;;;;;;;45.28;20.83;;;;;;;11.45;100.00;103366.44;5117788;27;20384;-54
2022/01/23 03:33:05;;;;;;;44.17;20.10;;;;;;;11.47;100.00;103369.81;5136364;27;20054;-55
2022/01/23 03:35:31;;;;;;;39.65;18.83;;;;;;;11.59;100.00;103379.44;5117953;27;20043;-51
2022/01/23 03:37:57;;;;;;;44.85;19.88;;;;;;;11.58;100.00;103376.88;5136393;27;20039;-53
2022/01/23 03:40:22;;;;;;;47.90;19.98;;;;;;;11.41;100.00;103371.22;5136130;27;20074;-51
2022/01/23 03:42:55;;;;;;;41.60;18.23;;;;;;;11.57;100.00;103380.56;5117897;27;20185;-54
2022/01/23 03:50:35;;;;;;;34.35;17.67;;;;;;;11.57;100.00;103375.19;5117530;27;20047;-51
2022/01/23 03:53:01;;;;;;;39.13;18.53;;;;;;;11.54;100.00;103376.34;5100978;27;20475;-54
2022/01/23 03:55:27;;;;;;;37.63;18.67;;;;;;;11.58;100.00;103384.94;5100232;27;20504;-54
2022/01/23 03:57:52;;;;;;;40.30;18.48;;;;;;;11.42;100.00;103383.66;5117669;27;20076;-52
2022/01/23 04:00:18;;;;;;;39.63;19.00;;;;;;;11.67;100.00;103389.47;5135795;27;20073;-53
2022/01/23 04:02:44;;;;;;;38.90;19.15;;;;;;;11.71;100.00;103392.69;5117557;27;20095;-54
2022/01/23 04:05:19;;;;;;;40.47;18.65;;;;;;;11.75;100.00;103396.78;5118771;27;20112;-53
2022/01/23 04:07:46;;;;;;;42.63;19.40;;;;;;;11.67;100.00;103407.38;5100954;27;20096;-55
2022/01/23 04:10:15;;;;;;;42.08;18.05;;;;;;;11.74;100.00;103397.78;5100729;27;20035;-50
2022/01/23 04:34:36;;;;;;;41.25;19.08;;;;;;;11.60;100.00;103399.91;5117158;27;20410;-55
2022/01/23 05:01:19;;;;;;;41.00;20.85;;;;;;;11.76;100.00;103403.84;5136897;27;20050;-50
2022/01/23 05:04:16;;;;;;;40.40;19.88;;;;;;;11.59;100.00;103403.56;5136780;27;20108;-51
2022/01/23 05:07:31;;;;;;;44.20;19.20;;;;;;;11.69;100.00;103402.72;5155549;27;20398;-55
2022/01/23 05:10:22;;;;;;;45.05;19.05;;;;;;;11.56;100.00;103403.84;5127483;27;20055;-53
2022/01/23 05:13:01;;;;;;;43.55;19.30;;;;;;;11.55;100.00;103398.63;5136917;27;20505;-55
2022/01/23 05:15:27;;;;;;;45.08;19.30;;;;;;;11.55;100.00;103404.84;5136203;27;20047;-57
2022/01/23 05:17:53;;;;;;;42.37;21.07;;;;;;;11.40;100.00;103399.00;5136941;27;20485;-55
2022/01/23 05:20:20;;;;;;;43.60;19.67;;;;;;;11.53;100.00;103406.78;5154944;27;20345;-53
2022/01/23 05:22:49;;;;;;;41.55;19.65;;;;;;;11.61;100.00;103406.09;5136694;27;20043;-55
2022/01/23 05:25:21;;;;;;;54.97;21.40;;;;;;;11.35;100.00;103403.09;5154890;27;20034;-56
2022/01/23 05:27:50;;;;;;;40.22;18.77;;;;;;;11.57;100.00;103408.22;5155259;27;20046;-55
2022/01/23 05:30:16;;;;;;;38.70;19.90;;;;;;;11.64;100.00;103410.34;5154692;27;20058;-52
2022/01/23 05:32:43;;;;;;;54.85;20.35;;;;;;;11.69;100.00;103410.75;5154273;27;20055;-53
2022/01/23 05:35:10;;;;;;;46.10;19.92;;;;;;;11.72;100.00;103402.44;5136809;27;20037;-55
2022/01/23 05:37:38;;;;;;;45.60;21.70;;;;;;;11.72;100.00;103405.97;5136011;27;20038;-54
2022/01/23 05:40:09;;;;;;;45.88;21.38;;;;;;;11.78;100.00;103409.94;5135944;27;20527;-54
2022/01/23 05:42:36;;;;;;;39.72;18.85;;;;;;;11.73;100.00;103409.47;5135940;27;20046;-54
2022/01/23 05:45:03;;;;;;;42.30;19.95;;;;;;;11.73;100.00;103409.47;5119270;27;20500;-55
2022/01/23 05:47:40;;;;;;;41.20;19.27;;;;;;;11.73;100.00;103406.81;5120706;27;20450;-52
2022/01/23 05:50:18;;;;;;;40.25;18.40;;;;;;;11.77;100.00;103401.03;5120782;27;20482;-53
2022/01/23 05:52:55;;;;;;;41.60;19.85;;;;;;;11.73;100.00;103404.13;5136479;27;20062;-53
2022/01/23 05:55:24;;;;;;;47.72;21.55;;;;;;;11.70;100.00;103409.78;5154496;27;20054;-51
2022/01/23 05:58:15;;;;;;;43.53;19.83;;;;;;;11.70;100.00;103405.28;5129778;27;20047;-54
2022/01/23 06:00:46;;;;;;;46.78;20.42;;;;;;;11.80;100.00;103407.97;5135645;27;20145;-52
2022/01/23 06:03:16;;;;;;;40.13;20.35;;;;;;;11.79;100.00;103413.44;5132271;28;20067;-50
2022/01/23 06:05:46;;;;;;;42.33;20.17;;;;;;;11.69;100.00;103422.34;5115946;28;20501;-53
2022/01/23 06:08:21;;;;;;;42.00;19.88;;;;;;;11.79;100.00;103421.50;5133996;27;20046;-50
2022/01/23 06:10:59;;;;;;;42.92;20.95;;;;;;;11.71;100.00;103419.50;5132384;28;20043;-52
2022/01/23 06:13:33;;;;;;;41.97;20.80;;;;;;;11.77;100.00;103421.66;5132403;28;20043;-52
2022/01/23 06:15:59;;;;;;;47.65;21.10;;;;;;;11.81;100.00;103423.06;5132361;28;20088;-51
2022/01/23 06:18:26;;;;;;;44.45;20.60;;;;;;;11.79;100.00;103424.16;5132178;28;20030;-52
2022/01/23 06:21:12;;;;;;;48.92;21.90;;;;;;;11.84;100.00;103417.41;5134026;28;20474;-54
2022/01/23 06:24:09;;;;;;;46.08;19.70;;;;;;;11.88;100.00;103423.34;5119915;28;20039;-51
2022/01/23 06:27:04;;;;;;;46.97;19.70;;;;;;;11.85;100.00;103421.78;5115696;27;20043;-52
2022/01/23 06:29:35;;;;;;;42.42;20.17;;;;;;;11.83;100.00;103420.22;5132109;28;20043;-54
2022/01/23 06:32:02;;;;;;;48.35;21.13;;;;;;;11.80;100.00;103425.88;5133223;27;20042;-53
2022/01/23 06:34:29;;;;;;;43.63;21.20;;;;;;;11.79;100.00;103417.00;5115110;28;20048;-54
2022/01/23 06:36:55;;;;;;;44.13;20.38;;;;;;;11.76;100.00;103419.91;5132545;28;20074;-48
2022/01/23 06:39:24;;;;;;;41.30;21.02;;;;;;;11.82;100.00;103415.84;5115345;28;20080;-50
2022/01/23 06:41:53;;;;;;;48.00;20.98;;;;;;;11.82;100.00;103416.72;5132536;28;20038;-53
2022/01/23 06:44:26;;;;;;;45.85;21.33;;;;;;;11.87;100.00;103418.94;5132392;28;20084;-53
2022/01/23 06:46:53;;;;;;;45.95;21.17;;;;;;;11.90;100.00;103424.88;5115934;28;20499;-52
2022/01/23 06:49:18;;;;;;;48.10;20.02;;;;;;;11.94;100.00;103433.50;5133955;27;20041;-50
2022/01/23 06:51:44;;;;;;;42.78;20.13;;;;;;;11.95;100.00;103429.84;5135995;27;20070;-52
2022/01/23 06:54:12;;;;;;;43.30;20.05;;;;;;;11.95;100.00;103431.66;5136244;27;20061;-52
2022/01/23 06:56:38;;;;;;;41.78;19.60;;;;;;;11.90;100.00;103435.59;5118742;27;20034;-53
2022/01/23 06:59:04;;;;;;;49.83;19.83;;;;;;;11.86;100.00;103436.88;5136268;27;20387;-48
2022/01/23 07:01:30;;;;;;;43.10;20.33;;;;;;;11.85;100.00;103437.00;5118141;27;20042;-49
2022/01/23 07:04:13;;;;;;;42.47;20.55;;;;;;;11.99;100.00;103441.97;5153467;27;20539;-52
2022/01/23 07:06:51;;;;;;;43.30;19.42;;;;;;;11.99;100.00;103438.44;5123686;27;20042;-53
2022/01/23 07:09:32;;;;;;;49.17;23.25;;;;;;;11.96;100.00;103439.56;5139154;27;20050;-50
2022/01/23 07:12:29;;;;;;;50.22;21.85;;;;;;;11.90;100.00;103446.34;5116934;27;20086;-50
2022/01/23 07:15:19;;;;;;;49.10;22.15;;;;;;;11.97;100.00;103446.63;5139085;27;20067;-51
2022/01/23 07:18:01;;;;;;;43.25;20.83;;;;;;;12.03;100.00;103454.13;5158085;27;20523;-51
2022/01/23 07:20:33;;;;;;;44.65;20.83;;;;;;;11.96;100.00;103449.44;5122305;27;20046;-50
2022/01/23 07:23:11;;;;;;;50.08;22.60;;;;;;;11.99;100.00;103455.38;5123568;27;20039;-54
2022/01/23 07:25:41;;;;;;;41.50;19.00;;;;;;;11.98;100.00;103458.19;5138361;27;20061;-54
2022/01/23 07:28:12;;;;;;;47.05;21.42;;;;;;;11.91;100.00;103468.66;5138729;27;20072;-54
2022/01/23 07:30:49;;;;;;;39.72;20.88;;;;;;;11.95;100.00;103461.16;5133585;27;20050;-54
2022/01/23 07:33:15;;;;;;;45.45;21.85;;;;;;;11.95;100.00;103466.50;5130167;27;20042;-54
2022/01/23 07:35:41;;;;;;;45.80;21.00;;;;;;;11.96;100.00;103478.94;5121351;27;20326;-52
2022/01/23 07:38:08;;;;;;;45.00;21.02;;;;;;;11.97;100.00;103475.25;5138166;27;20402;-51
2022/01/23 07:40:48;;;;;;;43.80;19.42;;;;;;;11.95;100.00;103479.91;5137089;27;20031;-54
2022/01/23 07:43:41;;;;;;;39.28;20.50;;;;;;;11.94;100.00;103481.78;5138424;27;20490;-53
2022/01/23 07:46:25;;;;;;;40.60;20.33;;;;;;;11.97;100.00;103484.16;5156153;27;20057;-50
2022/01/23 07:49:09;;;;;;;38.33;19.02;;;;;;;11.98;100.00;103490.38;5153971;27;20057;-56
2022/01/23 07:51:53;;;;;;;40.20;18.30;;;;;;;12.01;100.00;103493.66;5156663;27;20076;-52
2022/01/23 07:54:37;;;;;;;40.80;18.92;;;;;;;11.98;100.00;103493.91;5137791;27;20274;-52
2022/01/23 07:57:18;;;;;;;37.85;17.30;;;;;;;11.96;100.00;103498.56;5138412;27;20554;-53
2022/01/23 08:00:20;;;;;;;40.75;19.77;;;;;;;11.97;100.00;103499.41;5091942;28;20052;-55
2022/01/23 08:02:45;;;;;;;44.65;23.23;;;;;;;11.95;100.00;103499.56;5142853;27;20390;-54
2022/01/23 08:05:23;;;;;;;48.03;21.63;;;;;;;11.93;100.00;103503.34;5139537;27;20047;-54
2022/01/23 08:08:05;;;;;;;46.88;20.50;;;;;;;11.95;100.00;103491.50;5137835;27;20087;-53
2022/01/23 08:10:43;;;;;;;49.33;22.23;;;;;;;11.89;100.00;103492.06;5137182;27;20055;-52
2022/01/23 08:13:08;;;;;;;44.33;20.80;;;;;;;11.86;100.00;103500.38;5153098;27;20102;-52
2022/01/23 08:15:35;;;;;;;39.00;19.37;;;;;;;11.90;100.00;103502.66;5155919;27;20543;-57
2022/01/23 08:18:01;;;;;;;43.17;20.27;;;;;;;11.98;100.00;103511.81;5156578;27;20273;-55
2022/01/23 08:20:28;;;;;;;47.45;20.58;;;;;;;11.93;100.00;103503.34;5155858;27;20039;-54
2022/01/23 08:22:54;;;;;;;42.35;20.98;;;;;;;11.96;100.00;103505.75;5137429;27;20042;-56
2022/01/23 08:25:20;;;;;;;43.95;20.17;;;;;;;11.88;100.00;103499.25;5155979;27;20059;-54
2022/01/23 08:27:45;;;;;;;41.65;19.30;;;;;;;12.04;100.00;103508.63;5137140;27;20046;-54
2022/01/23 08:30:13;;;;;;;42.23;19.50;;;;;;;12.08;100.00;103507.38;5155871;27;20035;-54
2022/01/23 08:32:39;;;;;;;45.83;21.20;;;;;;;12.11;100.00;103509.75;5155637;27;20043;-51
2022/01/23 08:35:05;;;;;;;45.22;20.63;;;;;;;11.97;100.00;103507.44;5155987;27;20026;-55
2022/01/23 08:37:31;;;;;;;43.83;20.48;;;;;;;12.07;100.00;103510.19;5155813;27;20160;-52
2022/01/23 08:39:57;;;;;;;41.92;21.35;;;;;;;12.01;100.00;103508.91;5155641;27;20046;-55
2022/01/23 08:42:22;;;;;;;42.93;20.23;;;;;;;11.95;100.00;103506.75;5155478;27;20088;-54
2022/01/23 08:44:49;;;;;;;46.03;21.02;;;;;;;11.94;100.00;103507.72;5155309;27;20274;-54
2022/01/23 08:47:15;;;;;;;40.55;19.95;;;;;;;11.99;100.00;103514.38;5156044;27;20031;-53
2022/01/23 08:49:49;;;;;;;41.20;20.02;;;;;;;11.97;100.00;103511.00;5155237;27;20060;-52
2022/01/23 08:52:17;;;;;;;44.30;19.87;;;;;;;12.00;100.00;103515.25;5154939;27;20035;-53
2022/01/23 08:54:51;;;;;;;44.13;18.90;;;;;;;12.02;100.00;103521.34;5154596;27;20285;-54
2022/01/23 08:57:18;;;;;;;40.67;19.93;;;;;;;12.07;100.00;103524.44;5154808;27;20261;-54
2022/01/23 08:59:44;;;;;;;42.87;19.67;;;;;;;12.10;100.00;103526.84;5154367;27;20250;-53
2022/01/23 09:02:09;;;;;;;42.65;22.00;;;;;;;12.19;100.00;103520.63;5154887;27;20290;-56
2022/01/23 09:04:35;;;;;;;41.08;19.88;;;;;;;12.24;100.00;103525.59;5136234;27;20050;-53
2022/01/23 09:07:01;;;;;;;43.92;20.05;;;;;;;12.27;100.00;103527.16;5154340;27;20487;-51
2022/01/23 09:09:31;;;;;;;44.20;18.58;;;;;;;12.28;100.00;103529.69;5155155;27;20039;-55
2022/01/23 09:12:22;;;;;;;42.43;19.80;;;;;;;12.30;100.00;103529.53;5153632;27;20038;-54
2022/01/23 09:14:48;;;;;;;44.30;20.83;;;;;;;12.33;100.00;103529.25;5127343;27;20370;-53
2022/01/23 09:17:13;;;;;;;42.53;19.63;;;;;;;12.32;100.00;103530.25;5131486;27;20354;-52
2022/01/23 09:19:39;;;;;;;39.87;19.83;;;;;;;12.35;100.00;103521.91;5119397;27;20121;-53
2022/01/23 09:22:05;;;;;;;38.70;19.08;;;;;;;12.31;100.00;103521.34;5118881;27;20053;-55
2022/01/23 09:24:30;;;;;;;35.90;17.52;;;;;;;12.30;100.00;103529.53;5135736;27;20051;-52
2022/01/23 09:27:03;;;;;;;45.15;19.35;;;;;;;12.18;100.00;103521.63;5149828;27;20027;-51
2022/01/23 09:29:41;;;;;;;43.03;19.50;;;;;;;12.11;100.00;103522.31;5115035;27;20471;-50
2022/01/23 09:32:12;;;;;;;41.63;19.85;;;;;;;12.27;100.00;103529.84;5117378;27;20042;-48
2022/01/23 09:34:39;;;;;;;45.70;21.53;;;;;;;12.29;100.00;103526.00;5133385;27;20042;-49
2022/01/23 09:37:06;;;;;;;42.83;20.67;;;;;;;12.38;100.00;103528.84;5133720;27;20279;-53
2022/01/23 09:39:33;;;;;;;38.97;19.03;;;;;;;12.39;100.00;103528.69;5133892;27;20049;-49
2022/01/23 09:42:17;;;;;;;45.40;21.25;;;;;;;12.47;100.00;103534.22;5132623;27;20251;-53
2022/01/23 09:44:54;;;;;;;48.80;21.40;;;;;;;12.49;100.00;103536.75;5132025;27;20141;-52
2022/01/23 09:47:21;;;;;;;48.13;22.70;;;;;;;12.44;100.00;103544.38;5133444;27;20323;-48
2022/01/23 09:49:48;;;;;;;49.88;24.90;;;;;;;12.57;100.00;103544.94;5132896;27;20334;-50
2022/01/23 09:52:15;;;;;;;53.50;24.17;;;;;;;12.58;100.00;103543.97;5133206;27;20039;-54
2022/01/23 09:54:44;;;;;;;53.40;24.07;;;;;;;12.67;100.00;103544.91;5115110;28;20723;-53
2022/01/23 09:57:11;;;;;;;48.07;23.83;;;;;;;12.54;100.00;103547.88;5117457;27;20275;-51
2022/01/23 09:59:38;;;;;;;48.97;22.43;;;;;;;12.44;100.00;103542.53;5151465;27;20266;-48
2022/01/23 10:02:04;;;;;;;50.80;23.67;;;;;;;12.66;100.00;103547.75;5152190;27;20275;-52
2022/01/23 10:04:30;;;;;;;58.45;27.48;;;;;;;12.63;100.00;103548.88;5152116;27;20659;-53
2022/01/23 10:06:57;;;;;;;48.70;25.47;;;;;;;12.62;100.00;103540.00;5152167;27;20041;-50
2022/01/23 10:09:27;;;;;;;50.40;22.90;;;;;;;12.84;100.00;103542.50;5151335;27;20495;-53
2022/01/23 10:11:52;;;;;;;44.93;21.77;;;;;;;13.02;100.00;103545.28;5152787;27;20080;-54
2022/01/23 10:14:19;;;;;;;43.10;20.42;;;;;;;13.10;100.00;103542.72;5153653;27;20266;-48
2022/01/23 10:16:46;;;;;;;46.15;20.63;;;;;;;13.12;100.00;103539.88;5154493;27;20054;-55
2022/01/23 10:19:13;;;;;;;38.13;18.70;;;;;;;13.14;100.00;103537.88;5154566;27;20038;-52
2022/01/23 10:21:39;;;;;;;40.60;18.87;;;;;;;13.15;100.00;103537.75;5152686;27;20255;-50
2022/01/23 10:24:06;;;;;;;34.75;18.80;;;;;;;13.30;100.00;103551.56;5154695;27;20412;-52
2022/01/23 10:26:51;;;;;;;35.50;17.40;;;;;;;13.39;100.00;103544.44;5157332;27;20030;-53
2022/01/23 10:29:26;;;;;;;39.37;18.63;;;;;;;13.41;100.00;103547.84;5158017;27;20259;-50
2022/01/23 10:32:22;;;;;;;38.00;19.13;;;;;;;13.44;100.00;103546.75;5157049;27;20314;-51
2022/01/23 10:34:57;;;;;;;33.00;18.03;;;;;;;13.40;100.00;103540.78;5155460;27;20743;-53
2022/01/23 10:37:30;;;;;;;38.20;18.67;;;;;;;13.42;100.00;103538.78;5156564;27;20327;-47
2022/01/23 10:39:57;;;;;;;36.53;19.33;;;;;;;13.48;100.00;103545.44;5156299;27;20274;-50
2022/01/23 10:46:39;;;;;;;35.47;18.10;;;;;;;13.52;100.00;103549.53;5153186;27;20280;-54
2022/01/23 10:50:39;;;;;;;33.17;16.07;;;;;;;13.74;100.00;103544.75;5110772;27;20701;-47
2022/01/23 10:53:05;;;;;;;32.97;17.80;;;;;;;13.77;100.00;103552.50;5138347;27;20346;-55
2022/01/23 10:55:33;;;;;;;31.50;17.57;;;;;;;13.62;100.00;103547.66;5138480;27;20316;-50
2022/01/23 10:58:02;;;;;;;38.23;18.83;;;;;;;13.67;100.00;103536.44;5137785;27;20247;-53
2022/01/23 11:00:33;;;;;;;33.80;17.77;;;;;;;13.71;100.00;103542.34;5156300;27;20267;-49
2022/01/23 11:03:02;;;;;;;42.23;18.93;;;;;;;13.61;100.00;103534.34;5138071;27;20780;-54
2022/01/23 11:05:39;;;;;;;32.43;18.03;;;;;;;13.71;100.00;103536.97;5137985;27;20742;-53
2022/01/23 11:08:20;;;;;;;33.83;18.92;;;;;;;13.72;100.00;103534.13;5156591;27;20263;-53
2022/01/23 11:11:06;;;;;;;35.60;18.87;;;;;;;13.76;100.00;103530.16;5156094;27;20106;-51
2022/01/23 11:19:35;;;;;;;42.03;19.77;;;;;;;13.73;100.00;103516.16;5138108;27;20260;-52
2022/01/23 11:22:03;;;;;;;34.40;17.10;;;;;;;13.71;100.00;103524.38;5138315;27;20279;-49
2022/01/23 11:24:38;;;;;;;31.63;17.07;;;;;;;13.59;100.00;103518.34;5138545;27;20266;-51
2022/01/23 11:27:04;;;;;;;31.73;15.10;;;;;;;13.54;100.00;103523.34;5137832;27;20265;-50
2022/01/23 11:29:31;;;;;;;34.47;17.05;;;;;;;13.60;100.00;103524.59;5156553;27;20610;-50
2022/01/23 11:31:57;;;;;;;32.23;16.03;;;;;;;13.51;100.00;103514.75;5156429;27;20108;-47
2022/01/23 11:34:26;;;;;;;;;;;;;;;13.56;100.00;103512.44;5150288;27;20315;-49
2022/01/23 11:36:52;;;;;;;30.70;15.80;;;;;;;13.55;100.00;103516.97;5156625;27;19949;-52
2022/01/23 11:56:29;;;;;;;28.30;13.75;;;;;;;13.62;100.00;103498.38;5134088;27;20274;-53
2022/01/23 11:58:55;;;;;;;;;;;;;;;13.72;100.00;103501.84;5135485;27;20040;-57
2022/01/23 12:01:26;;;;;;;21.80;10.53;;;;;;;13.80;100.00;103503.78;5135206;27;20011;-56
2022/01/23 12:04:06;;;;;;;20.57;10.50;;;;;;;13.51;100.00;103495.91;5135788;27;20051;-49
2022/01/23 12:06:36;;;;;;;20.43;10.67;;;;;;;13.27;100.00;103492.72;5135731;27;20275;-53
2022/01/23 12:09:16;;;;;;;22.57;10.10;;;;;;;13.39;100.00;103492.56;5135154;27;20275;-51
2022/01/23 12:12:01;;;;;;;19.60;9.57;;;;;;;13.40;100.00;103494.25;5134017;27;20274;-53
2022/01/23 12:17:09;;;;;;;20.60;10.40;;;;;;;13.57;100.00;103490.75;5135285;27;20256;-52
2022/01/23 12:19:46;;;;;;;20.40;10.53;;;;;;;13.47;100.00;103489.97;5135393;27;20739;-54
2022/01/23 12:22:29;;;;;;;24.43;11.30;;;;;;;13.56;100.00;103486.38;5134954;27;20353;-51
2022/01/23 12:24:57;;;;;;;22.33;12.40;;;;;;;13.67;100.00;103489.88;5134777;27;20278;-53
2022/01/23 12:27:28;;;;;;;23.43;12.20;;;;;;;13.31;100.00;103487.91;5115587;27;20278;-50
2022/01/23 12:29:56;;;;;;;29.03;13.10;;;;;;;13.39;100.00;103481.81;5134950;27;20351;-50
2022/01/23 12:32:29;;;;;;;20.83;10.93;;;;;;;13.27;100.00;103476.59;5134759;27;20339;-51
2022/01/23 12:35:01;;;;;;;17.80;9.67;;;;;;;13.40;100.00;103468.19;5134946;27;20274;-52
2022/01/23 12:37:47;;;;;;;22.47;9.37;;;;;;;13.24;100.00;103470.69;5134894;27;20271;-53
2022/01/23 12:40:28;;;;;;;21.57;10.97;;;;;;;13.35;100.00;103470.50;5134395;27;20275;-54
2022/01/23 12:43:08;;;;;;;15.43;8.17;;;;;;;13.36;100.00;103474.00;5134910;27;20332;-54
2022/01/23 12:45:57;;;;;;;14.27;7.20;;;;;;;13.57;100.00;103463.03;5135968;27;20820;-53
2022/01/23 12:48:25;;;;;;;12.23;6.40;;;;;;;13.17;100.00;103465.06;5115742;27;20270;-52
2022/01/23 12:50:54;;;;;;;12.10;5.67;;;;;;;13.10;100.00;103467.50;5116746;27;20259;-54
2022/01/23 12:53:20;;;;;;;15.17;7.77;;;;;;;13.00;100.00;103470.22;5134225;27;20353;-54
2022/01/23 12:56:04;;;;;;;13.48;7.00;;;;;;;13.13;100.00;103469.88;5134279;27;20287;-54
2022/01/23 12:58:32;;;;;;;11.87;6.80;;;;;;;13.15;100.00;103457.16;5116345;27;20060;-57
2022/01/23 13:00:59;;;;;;;14.50;7.57;;;;;;;13.01;100.00;103454.94;5134452;27;20303;-54
2022/01/23 13:03:25;;;;;;;;;;;;;;;13.28;100.00;103462.19;5154294;27;20393;-52
2022/01/23 13:05:51;;;;;;;;;;;;;;;13.53;100.00;103459.81;5155318;27;19925;-51
2022/01/23 13:08:29;;;;;;;;;;;;;;;13.65;100.00;103447.00;5154602;27;19918;-52
2022/01/23 13:16:16;;;;;;;;;;;;;;;13.47;100.00;103453.19;5155002;27;19915;-54
2022/01/23 13:32:19;;;;;;;;;;;;;;;13.73;100.00;103447.09;5154910;27;19915;-52
2022/01/23 13:34:39;;;;;;;;;;;;;;;13.70;100.00;103447.38;5150615;27;20457;-51
2022/01/23 13:37:12;;;;;;;;;;;;;;;13.84;100.00;103448.72;5155059;27;20005;-53
2022/01/23 13:39:46;;;;;;;;;;;;;;;13.76;100.00;103438.72;5154135;27;19917;-52
2022/01/23 13:53:48;;;;;;;;;;;;;;;13.29;100.00;103444.22;5154355;27;19921;-50
2022/01/23 13:59:06;;;;;;;;;;;;;;;13.18;100.00;103440.72;5153507;27;19940;-53
2022/01/23 14:01:46;;;;;;;;;;;;;;;13.20;100.00;103440.59;5154447;27;20239;-52
2022/01/23 14:04:14;;;;;;;;;;;;;;;13.10;100.00;103437.94;5153929;27;20009;-55
2022/01/23 14:06:39;;;;;;;;;;;;;;;13.27;100.00;103439.00;5154273;27;19980;-55
2022/01/23 14:09:05;;;;;;;;;;;;;;;13.17;100.00;103440.88;5153690;27;19983;-54
2022/01/23 14:11:30;;;;;;;;;;;;;;;13.17;100.00;103438.22;5152146;27;19946;-54
2022/01/23 14:14:08;;;;;;;;;;;;;;;13.23;100.00;103434.06;5154499;27;19919;-54
2022/01/23 14:16:33;;;;;;;;;;;;;;;13.16;100.00;103433.81;5153575;27;19923;-55
2022/01/23 14:19:14;;;;;;;;;;;;;;;13.28;100.00;103431.78;5154157;27;19940;-51
2022/01/23 14:21:40;;;;;;;;;;;;;;;13.51;100.00;103426.84;5154479;27;19933;-53
2022/01/23 14:24:06;;;;;;;;;;;;;;;13.47;100.00;103433.53;5152419;27;20362;-54
2022/01/23 14:26:31;;;;;;;;;;;;;;;13.50;100.00;103430.53;5152204;27;19919;-54
2022/01/23 14:29:03;;;;;;;;;;;;;;;13.57;100.00;103434.31;5153807;27;19915;-53
2022/01/23 14:31:36;;;;;;;;;;;;;;;13.45;100.00;103430.97;5152540;27;19967;-53
2022/01/23 14:34:04;;;;;;;;;;;;;;;13.32;100.00;103434.00;5154019;27;19919;-52
2022/01/23 14:36:33;;;;;;;;;;;;;;;13.41;100.00;103428.75;5153989;27;19914;-53
2022/01/23 14:38:58;;;;;;;;;;;;;;;13.40;100.00;103432.44;5135124;27;19970;-54
2022/01/23 14:41:25;;;;;;;;;;;;;;;13.42;100.00;103435.81;5153555;27;19911;-53
2022/01/23 14:43:51;;;;;;;;;;;;;;;13.52;100.00;103436.59;5135851;27;19922;-56
2022/01/23 14:46:16;;;;;;;;;;;;;;;13.54;100.00;103429.22;5152886;27;19915;-54
2022/01/23 14:48:48;;;;;;;;;;;;;;;13.45;100.00;103435.53;5154614;27;19964;-55
2022/01/23 14:51:18;;;;;;;;;;;;;;;13.48;100.00;103435.22;5153574;27;19945;-55
2022/01/23 14:53:43;;;;;;;;;;;;;;;13.52;100.00;103430.41;5153604;27;19968;-55
2022/01/23 14:56:11;;;;;;;;;;;;;;;13.53;100.00;103434.78;5135702;27;20276;-55
2022/01/23 14:58:37;;;;;;;;;;;;;;;13.97;100.00;103437.56;5153837;27;19950;-54
2022/01/23 15:01:03;;;;;;;;;;;;;;;13.45;100.00;103440.91;5146374;27;20002;-53
2022/01/23 15:03:29;;;;;;;;;;;;;;;13.25;100.00;103438.28;5146058;27;19965;-52
2022/01/23 15:05:55;;;;;;;;;;;;;;;13.51;100.00;103440.28;5122083;27;19915;-54
2022/01/23 15:08:23;;;;;;;;;;;;;;;13.58;100.00;103438.69;5141335;27;19954;-56